Time;durP1;ratioP1;P1;durP2;ratioP2;P2;SDS_P1;SDS_P2;PMS_P1;PMS_P2;Temp;Humidity;BMP_temperature;BMP_pressure;BME280_temperature;BME280_humidity;BME280_pressure;Samples;Min_cycle;Max_cycle;Signal;HPM_P1;HPM_P2
2022/07/01 00:02:01;;;;;;;7.50;1.63;;;14.20;99.90;;;;;;5050308;28;20037;-47
2022/07/01 00:04:27;;;;;;;11.93;1.60;;;14.20;99.90;;;;;;5050030;28;20048;-47
2022/07/01 00:06:56;;;;;;;12.73;1.75;;;14.60;99.90;;;;;;5050103;28;20395;-47
2022/07/01 00:09:22;;;;;;;9.18;1.58;;;14.90;99.90;;;;;;5049606;28;20052;-50
2022/07/01 00:11:50;;;;;;;8.55;1.98;;;14.30;99.90;;;;;;5048201;28;20099;-47
2022/07/01 00:14:16;;;;;;;9.93;1.58;;;14.30;99.90;;;;;;5049314;28;20059;-51
2022/07/01 00:16:42;;;;;;;5.50;1.27;;;14.70;99.90;;;;;;5050222;28;20383;-47
2022/07/01 00:19:07;;;;;;;6.90;1.13;;;14.70;99.90;;;;;;5049589;28;20033;-47
2022/07/01 00:21:33;;;;;;;6.03;1.40;;;14.30;99.90;;;;;;5050147;28;20048;-48
2022/07/01 00:23:59;;;;;;;11.25;1.83;;;14.40;99.90;;;;;;5049860;28;20049;-47
2022/07/01 00:26:25;;;;;;;6.68;1.48;;;14.20;99.90;;;;;;5049778;28;20367;-47
2022/07/01 00:28:51;;;;;;;7.55;1.60;;;14.30;99.90;;;;;;5050609;28;20394;-47
2022/07/01 00:31:16;;;;;;;6.80;1.70;;;14.30;99.90;;;;;;5049401;28;20182;-47
2022/07/01 00:33:42;;;;;;;7.00;1.30;;;14.30;99.90;;;;;;5049333;28;20041;-47
2022/07/01 00:36:08;;;;;;;7.97;1.40;;;14.30;99.90;;;;;;5048817;28;20045;-47
2022/07/01 00:38:33;;;;;;;7.68;1.35;;;14.20;99.90;;;;;;5048697;28;20044;-47
2022/07/01 00:40:59;;;;;;;14.25;2.58;;;14.70;99.90;;;;;;5048841;28;20049;-51
2022/07/01 00:43:25;;;;;;;6.35;1.60;;;14.30;99.90;;;;;;5049613;28;20053;-47
2022/07/01 00:45:52;;;;;;;5.68;1.02;;;14.60;99.90;;;;;;5048290;28;20091;-47
2022/07/01 00:48:22;;;;;;;8.45;1.55;;;14.60;99.90;;;;;;5048459;28;20029;-47
2022/07/01 00:50:48;;;;;;;8.52;1.85;;;14.60;99.90;;;;;;5048673;28;20391;-47
2022/07/01 00:53:14;;;;;;;10.82;1.58;;;14.60;99.90;;;;;;5048768;28;20048;-47
2022/07/01 00:55:41;;;;;;;6.93;1.38;;;15.00;99.90;;;;;;5049535;28;20456;-47
2022/07/01 00:58:10;;;;;;;5.53;1.58;;;14.80;99.90;;;;;;5050321;28;20049;-46
2022/07/01 01:00:38;;;;;;;6.55;1.50;;;14.40;99.90;;;;;;5053615;28;20560;-47
2022/07/01 01:03:06;;;;;;;8.95;2.10;;;14.70;99.90;;;;;;5052714;28;20056;-47
2022/07/01 01:05:32;;;;;;;5.93;1.58;;;14.60;99.90;;;;;;5054602;28;20049;-47
2022/07/01 01:07:58;;;;;;;8.00;2.20;;;14.40;99.90;;;;;;5053066;28;20422;-46
2022/07/01 01:10:25;;;;;;;4.35;2.13;;;14.90;99.90;;;;;;5053702;28;20057;-47
2022/07/01 01:12:51;;;;;;;9.25;2.83;;;14.80;99.90;;;;;;5052312;28;20088;-46
2022/07/01 01:15:18;;;;;;;6.15;1.65;;;14.50;99.90;;;;;;5053258;28;20088;-47
2022/07/01 01:17:46;;;;;;;4.90;1.23;;;14.70;99.90;;;;;;5052775;28;20045;-46
2022/07/01 01:20:16;;;;;;;3.03;0.93;;;14.40;99.90;;;;;;5052128;28;20041;-47
2022/07/01 01:22:43;;;;;;;7.68;1.77;;;14.40;99.90;;;;;;5052039;28;20045;-47
2022/07/01 01:25:08;;;;;;;4.07;0.60;;;14.70;99.90;;;;;;5052351;28;20045;-47
2022/07/01 01:27:34;;;;;;;3.53;1.10;;;14.30;99.90;;;;;;5052017;28;20037;-46
2022/07/01 01:30:00;;;;;;;5.07;0.98;;;14.30;99.90;;;;;;5051666;28;20040;-47
2022/07/01 01:32:25;;;;;;;4.30;0.88;;;14.90;99.90;;;;;;5051446;28;20037;-47
2022/07/01 01:34:51;;;;;;;6.55;1.17;;;14.80;99.90;;;;;;5051324;28;20498;-47
2022/07/01 01:37:17;;;;;;;7.13;1.25;;;14.30;99.90;;;;;;5051344;28;20124;-46
2022/07/01 01:39:43;;;;;;;7.28;1.38;;;14.80;99.90;;;;;;5050884;28;20041;-47
2022/07/01 01:42:08;;;;;;;4.88;1.63;;;14.30;99.90;;;;;;5053056;28;20056;-48
2022/07/01 01:44:34;;;;;;;4.50;0.98;;;14.70;99.90;;;;;;5052417;28;20064;-47
2022/07/01 01:47:00;;;;;;;7.80;1.33;;;14.50;99.90;;;;;;5052385;28;20443;-47
2022/07/01 01:49:26;;;;;;;2.40;0.80;;;14.60;99.90;;;;;;5051966;28;20037;-48
2022/07/01 01:51:51;;;;;;;7.57;1.10;;;14.50;99.90;;;;;;5052537;28;20495;-47
2022/07/01 01:54:17;;;;;;;4.45;1.50;;;14.20;99.90;;;;;;5049785;28;20409;-47
2022/07/01 01:56:43;;;;;;;4.00;0.80;;;14.30;99.90;;;;;;5051380;28;20040;-48
2022/07/01 01:59:08;;;;;;;2.47;0.88;;;14.30;99.90;;;;;;5052225;28;20068;-47
2022/07/01 02:01:34;;;;;;;5.80;0.80;;;14.40;99.90;;;;;;5052406;28;20083;-47
2022/07/01 02:04:00;;;;;;;3.53;1.00;;;14.50;99.90;;;;;;5051824;28;20037;-47
2022/07/01 02:06:25;;;;;;;2.13;0.40;;;14.20;99.90;;;;;;5052083;28;20166;-46
2022/07/01 02:08:51;;;;;;;3.78;0.63;;;14.10;99.90;;;;;;5051845;28;20415;-47
2022/07/01 02:11:17;;;;;;;3.53;1.20;;;14.10;99.90;;;;;;5050998;28;20140;-47
2022/07/01 02:13:44;;;;;;;4.72;1.30;;;14.50;99.90;;;;;;5051476;28;20052;-47
2022/07/01 02:16:10;;;;;;;4.13;1.45;;;14.50;99.90;;;;;;5052117;28;20123;-46
2022/07/01 02:18:36;;;;;;;4.25;0.90;;;14.10;99.90;;;;;;5051839;28;20041;-46
2022/07/01 02:21:02;;;;;;;2.22;0.68;;;14.40;99.90;;;;;;5052336;28;20163;-47
2022/07/01 02:23:29;;;;;;;3.33;0.70;;;14.00;99.90;;;;;;5052199;28;20048;-46
2022/07/01 02:25:55;;;;;;;3.28;0.90;;;14.40;99.90;;;;;;5051757;28;20041;-48
2022/07/01 02:28:21;;;;;;;4.80;1.38;;;14.10;99.90;;;;;;5052151;28;20127;-46
2022/07/01 02:30:46;;;;;;;7.05;1.33;;;14.00;99.90;;;;;;5051980;28;20097;-48
2022/07/01 02:33:12;;;;;;;4.18;1.00;;;14.20;99.90;;;;;;5050924;28;20059;-47
2022/07/01 02:35:40;;;;;;;7.45;1.38;;;13.90;99.90;;;;;;5051810;28;20048;-46
2022/07/01 02:38:07;;;;;;;8.75;1.70;;;14.20;99.90;;;;;;5052277;28;20033;-47
2022/07/01 02:40:40;;;;;;;8.00;1.83;;;13.80;99.90;;;;;;5051916;28;20283;-46
2022/07/01 02:43:09;;;;;;;8.65;2.00;;;13.70;99.90;;;;;;5052347;28;20045;-46
2022/07/01 02:45:34;;;;;;;8.68;2.40;;;13.70;99.90;;;;;;5051672;28;20047;-46
2022/07/01 02:48:03;;;;;;;8.43;2.42;;;13.80;99.90;;;;;;5052106;28;20040;-47
2022/07/01 02:50:29;;;;;;;9.02;2.38;;;14.10;99.90;;;;;;5051218;28;20052;-45
2022/07/01 02:52:54;;;;;;;6.78;2.25;;;13.90;99.90;;;;;;5050699;28;20410;-47
2022/07/01 02:55:20;;;;;;;7.97;2.08;;;14.00;99.90;;;;;;5051132;28;20090;-46
2022/07/01 02:57:49;;;;;;;5.25;1.92;;;13.60;99.90;;;;;;5051592;28;20041;-46
2022/07/01 03:00:15;;;;;;;5.60;2.25;;;13.40;99.90;;;;;;5051486;28;20048;-46
2022/07/01 03:02:41;;;;;;;7.65;2.42;;;13.50;99.90;;;;;;5051211;28;20444;-47
2022/07/01 03:05:07;;;;;;;8.88;3.30;;;14.10;99.90;;;;;;5051461;28;20040;-48
2022/07/01 03:07:34;;;;;;;8.40;2.67;;;13.40;99.90;;;;;;5050666;28;20057;-46
2022/07/01 03:10:01;;;;;;;14.13;3.72;;;13.50;99.90;;;;;;5051076;28;20131;-46
2022/07/01 03:12:30;;;;;;;10.70;3.20;;;13.80;99.90;;;;;;5050910;28;20552;-46
2022/07/01 03:15:00;;;;;;;9.20;3.20;;;13.40;99.90;;;;;;5051244;28;20041;-46
2022/07/01 03:17:31;;;;;;;11.07;3.17;;;13.70;99.90;;;;;;5051198;28;20470;-47
2022/07/01 03:19:57;;;;;;;9.70;2.83;;;14.10;99.90;;;;;;5051550;28;20099;-48
2022/07/01 03:22:24;;;;;;;5.97;2.67;;;13.50;99.90;;;;;;5050472;28;20635;-48
2022/07/01 03:24:51;;;;;;;10.48;4.05;;;13.40;99.90;;;;;;5050917;28;20120;-46
2022/07/01 03:27:18;;;;;;;12.48;3.83;;;13.70;99.90;;;;;;5051163;28;20464;-46
2022/07/01 03:29:44;;;;;;;7.30;3.30;;;13.70;99.90;;;;;;5050910;28;20094;-47
2022/07/01 03:32:11;;;;;;;20.42;5.15;;;13.80;99.90;;;;;;5050941;28;20086;-48
2022/07/01 03:34:39;;;;;;;15.30;4.82;;;14.00;99.90;;;;;;5050941;28;20052;-46
2022/07/01 03:37:06;;;;;;;8.73;4.03;;;13.30;99.90;;;;;;5050916;28;20043;-46
2022/07/01 03:39:33;;;;;;;17.23;5.55;;;13.90;99.90;;;;;;5050611;28;20045;-46
2022/07/01 03:41:59;;;;;;;12.68;5.50;;;13.90;99.90;;;;;;5050616;28;20117;-47
2022/07/01 03:44:25;;;;;;;18.75;6.68;;;13.50;99.90;;;;;;5050717;28;20040;-46
2022/07/01 03:46:50;;;;;;;10.45;5.22;;;13.50;99.90;;;;;;5050635;28;20088;-46
2022/07/01 03:49:16;;;;;;;15.43;5.68;;;13.50;99.90;;;;;;5050491;28;20124;-46
2022/07/01 03:51:42;;;;;;;24.17;7.25;;;13.90;99.90;;;;;;5050479;28;20040;-47
2022/07/01 03:56:52;;;;;;;20.40;7.75;;;13.60;99.90;;;;;;5051013;28;20044;-46
2022/07/01 03:59:17;;;;;;;26.95;8.65;;;13.60;99.90;;;;;;5050464;28;20041;-46
2022/07/01 04:01:43;;;;;;;14.82;6.72;;;14.00;99.90;;;;;;5050349;28;20086;-47
2022/07/01 04:04:09;;;;;;;25.77;8.80;;;14.00;99.90;;;;;;5050333;28;20120;-47
2022/07/01 04:06:35;;;;;;;19.88;7.95;;;14.10;99.90;;;;;;5050357;28;20041;-46
2022/07/01 04:09:01;;;;;;;32.88;10.32;;;14.20;99.90;;;;;;5050357;28;20065;-46
2022/07/01 04:11:27;;;;;;;27.88;10.95;;;13.70;99.90;;;;;;5049620;28;20498;-46
2022/07/01 04:13:53;;;;;;;19.08;10.20;;;13.80;99.90;;;;;;5050179;28;20045;-46
2022/07/01 04:16:20;;;;;;;16.80;9.90;;;14.20;99.90;;;;;;5050108;28;20561;-46
2022/07/01 04:18:46;;;;;;;26.05;12.98;;;14.60;99.90;;;;;;5048789;28;20124;-46
2022/07/01 04:23:56;;;;;;;41.42;16.45;;;14.30;99.90;;;;;;5050324;28;20287;-46
2022/07/01 04:26:26;;;;;;;25.00;13.50;;;14.30;99.90;;;;;;5049901;28;20499;-46
2022/07/01 04:28:53;;;;;;;30.88;14.43;;;13.90;99.90;;;;;;5049164;28;20044;-46
2022/07/01 04:31:19;;;;;;;45.63;18.25;;;14.30;99.90;;;;;;5049844;28;20041;-46
2022/07/01 04:33:45;;;;;;;44.30;17.67;;;13.90;99.90;;;;;;5051960;28;20045;-46
2022/07/01 04:36:12;;;;;;;28.33;16.55;;;13.90;99.90;;;;;;5054766;28;20036;-48
2022/07/01 04:38:38;;;;;;;32.50;17.63;;;13.70;99.90;;;;;;5053970;28;20052;-46
2022/07/01 04:43:48;;;;;;;51.97;22.42;;;14.30;99.90;;;;;;5054063;28;20133;-47
2022/07/01 04:46:13;;;;;;;65.75;24.48;;;14.40;99.90;;;;;;5054155;28;20132;-46
2022/07/01 04:48:40;;;;;;;44.70;22.38;;;14.00;99.90;;;;;;5054243;28;20412;-46
2022/07/01 04:51:06;;;;;;;67.20;26.48;;;14.30;99.90;;;;;;5053947;28;20044;-46
2022/07/01 04:53:32;;;;;;;58.88;25.52;;;14.40;99.90;;;;;;5053841;28;20037;-46
2022/07/01 04:55:58;;;;;;;51.15;25.88;;;14.30;99.90;;;;;;5053908;28;20076;-47
2022/07/01 04:58:24;;;;;;;73.85;28.15;;;14.00;99.90;;;;;;5053798;28;20084;-46
2022/07/01 05:00:50;;;;;;;47.90;27.27;;;14.00;99.90;;;;;;5053532;28;20045;-48
2022/07/01 05:03:16;;;;;;;64.18;28.70;;;14.00;99.90;;;;;;5053132;28;20510;-46
2022/07/01 05:05:42;;;;;;;58.58;28.10;;;14.20;99.90;;;;;;5053660;28;20116;-46
2022/07/01 05:08:08;;;;;;;59.45;29.73;;;14.00;99.90;;;;;;5053268;28;20056;-46
2022/07/01 05:10:34;;;;;;;79.32;30.73;;;14.50;99.90;;;;;;5053054;28;20048;-46
2022/07/01 05:13:00;;;;;;;84.72;30.58;;;14.20;99.90;;;;;;5053110;28;20486;-46
2022/07/01 05:15:25;;;;;;;72.43;31.48;;;14.00;99.90;;;;;;5053565;28;20036;-47
2022/07/01 05:23:19;;;;;;;67.05;31.55;;;14.10;99.90;;;;;;5052955;28;20100;-47
2022/07/01 05:25:45;;;;;;;50.05;28.40;;;14.10;99.90;;;;;;5053386;28;20438;-46
2022/07/01 05:28:11;;;;;;;49.90;28.70;;;14.10;99.90;;;;;;5053398;28;20041;-48
2022/07/01 05:30:36;;;;;;;62.85;28.65;;;14.50;99.90;;;;;;5052909;28;20048;-49
2022/07/01 05:33:02;;;;;;;52.05;28.58;;;14.30;99.90;;;;;;5053359;28;20055;-47
2022/07/01 05:35:28;;;;;;;43.55;25.73;;;14.30;99.90;;;;;;5053355;28;20399;-46
2022/07/01 05:37:54;;;;;;;61.10;29.55;;;14.40;99.90;;;;;;5053133;28;20029;-47
2022/07/01 05:40:19;;;;;;;46.75;27.65;;;14.40;99.90;;;;;;5053627;28;20033;-46
2022/07/01 05:42:45;;;;;;;61.00;28.40;;;14.50;99.90;;;;;;5052785;28;20098;-47
2022/07/01 05:45:11;;;;;;;70.80;31.20;;;14.50;99.90;;;;;;5052058;28;20041;-46
2022/07/01 05:47:36;;;;;;;51.67;29.25;;;15.00;99.90;;;;;;5053322;28;20048;-46
2022/07/01 05:50:02;;;;;;;49.05;28.48;;;15.00;99.90;;;;;;5053581;28;20041;-46
2022/07/01 05:52:28;;;;;;;56.17;30.15;;;14.80;99.90;;;;;;5053096;28;20051;-48
2022/07/01 05:54:54;;;;;;;48.80;28.02;;;15.30;99.90;;;;;;5052822;28;20037;-46
2022/07/01 05:57:19;;;;;;;44.55;26.70;;;15.10;99.90;;;;;;5052649;28;20051;-48
2022/07/01 05:59:45;;;;;;;44.97;27.67;;;15.20;99.90;;;;;;5053049;28;20040;-48
2022/07/01 06:02:11;;;;;;;43.85;28.48;;;15.30;99.90;;;;;;5052953;28;20040;-46
2022/07/01 06:04:36;;;;;;;44.92;28.83;;;15.50;99.90;;;;;;5053151;28;20053;-47
2022/07/01 06:07:02;;;;;;;38.08;26.48;;;16.00;99.90;;;;;;5052985;28;20082;-47
2022/07/01 06:09:28;;;;;;;31.60;23.85;;;15.60;99.90;;;;;;5052164;28;20053;-46
2022/07/01 06:11:53;;;;;;;33.13;26.20;;;15.70;99.90;;;;;;5052882;28;20041;-46
2022/07/01 06:14:19;;;;;;;39.15;26.00;;;15.70;99.90;;;;;;5052861;28;20154;-49
2022/07/01 06:16:45;;;;;;;28.55;23.85;;;15.80;99.90;;;;;;5052824;28;20052;-47
2022/07/01 06:19:10;;;;;;;30.45;23.77;;;15.70;99.90;;;;;;5053333;28;20044;-45
2022/07/01 06:21:36;;;;;;;28.08;23.48;;;15.70;99.90;;;;;;5051492;28;20053;-46
2022/07/01 06:24:02;;;;;;;31.75;24.60;;;15.70;99.90;;;;;;5053078;28;20051;-46
2022/07/01 06:26:28;;;;;;;32.95;24.73;;;15.80;99.90;;;;;;5053061;28;20037;-46
2022/07/01 06:28:53;;;;;;;32.25;26.00;;;15.80;99.90;;;;;;5052887;28;20072;-46
2022/07/01 06:31:19;;;;;;;28.55;23.92;;;15.90;99.90;;;;;;5052875;28;20090;-46
2022/07/01 06:33:45;;;;;;;28.30;23.85;;;16.00;99.90;;;;;;5053028;28;20126;-46
2022/07/01 06:36:12;;;;;;;25.52;22.73;;;16.20;99.90;;;;;;5053383;28;20070;-46
2022/07/01 06:38:37;;;;;;;26.77;23.67;;;16.80;99.90;;;;;;5052567;28;20395;-46
2022/07/01 06:43:47;;;;;;;25.92;23.02;;;16.80;99.90;;;;;;5052831;28;20124;-46
2022/07/01 06:46:15;;;;;;;27.88;24.65;;;;;;;;;;5053142;28;20485;-46
2022/07/01 06:48:41;;;;;;;25.60;22.98;;;17.50;99.90;;;;;;5053007;28;20041;-46
2022/07/01 06:51:07;;;;;;;25.08;22.48;;;18.10;99.90;;;;;;5052842;28;20056;-46
2022/07/01 06:53:32;;;;;;;23.23;20.85;;;18.20;99.90;;;;;;5053287;28;20043;-46
2022/07/01 06:55:58;;;;;;;22.25;20.00;;;18.60;99.90;;;;;;5053099;28;20429;-46
2022/07/01 06:58:24;;;;;;;22.65;20.55;;;18.90;99.90;;;;;;5052569;28;20041;-46
2022/07/01 07:00:50;;;;;;;23.02;19.85;;;19.40;99.90;;;;;;5052851;28;20397;-46
2022/07/01 07:03:15;;;;;;;20.90;18.90;;;19.30;99.90;;;;;;5053171;28;20045;-46
2022/07/01 07:05:41;;;;;;;19.88;17.90;;;19.20;99.90;;;;;;5053374;28;20037;-47
2022/07/01 07:08:07;;;;;;;21.80;18.58;;;19.10;99.90;;;;;;5052831;28;20103;-46
2022/07/01 07:10:32;;;;;;;21.75;18.90;;;19.20;99.90;;;;;;5052270;28;20543;-47
2022/07/01 07:12:58;;;;;;;19.23;17.42;;;18.70;99.90;;;;;;5051667;28;20099;-47
2022/07/01 07:15:24;;;;;;;20.05;18.00;;;18.60;99.90;;;;;;5052832;28;20506;-46
2022/07/01 07:17:49;;;;;;;20.17;18.27;;;18.50;99.90;;;;;;5052756;28;20471;-46
2022/07/01 07:20:15;;;;;;;21.52;18.15;;;18.30;99.90;;;;;;5052375;28;20120;-46
2022/07/01 07:22:41;;;;;;;20.58;18.48;;;18.10;99.90;;;;;;5051277;28;20037;-46
2022/07/01 07:25:07;;;;;;;21.00;18.83;;;17.90;99.90;;;;;;5052106;28;20048;-47
2022/07/01 07:27:32;;;;;;;20.70;18.52;;;17.80;99.90;;;;;;5051855;28;20052;-46
2022/07/01 07:29:58;;;;;;;19.48;17.58;;;17.90;99.90;;;;;;5052220;28;20403;-46
2022/07/01 07:32:24;;;;;;;21.20;18.58;;;18.00;99.90;;;;;;5052198;28;20041;-47
2022/07/01 07:34:49;;;;;;;22.60;20.40;;;18.10;99.90;;;;;;5052349;28;20045;-46
2022/07/01 07:37:15;;;;;;;21.30;19.25;;;18.10;99.90;;;;;;5052303;28;20048;-46
2022/07/01 07:39:40;;;;;;;21.40;19.33;;;18.30;99.90;;;;;;5052674;28;20095;-47
2022/07/01 07:42:06;;;;;;;20.77;18.63;;;18.40;99.90;;;;;;5052507;28;20043;-46
2022/07/01 07:44:32;;;;;;;19.63;17.58;;;18.60;99.90;;;;;;5052798;28;20132;-46
2022/07/01 07:46:59;;;;;;;20.48;18.48;;;18.60;99.90;;;;;;5052419;28;20164;-47
2022/07/01 07:49:25;;;;;;;18.80;17.00;;;18.70;99.90;;;;;;5052496;28;20041;-47
2022/07/01 07:51:52;;;;;;;19.80;16.35;;;18.80;99.90;;;;;;5052204;28;20133;-48
2022/07/01 07:54:17;;;;;;;19.50;17.40;;;18.90;99.90;;;;;;5052376;28;20143;-47
2022/07/01 07:56:43;;;;;;;20.10;18.00;;;19.10;99.90;;;;;;5051937;28;20538;-47
2022/07/01 07:59:09;;;;;;;17.90;16.00;;;19.40;99.90;;;;;;5052372;28;20041;-48
2022/07/01 08:01:35;;;;;;;17.38;15.73;;;19.80;99.90;;;;;;5052359;28;20076;-47
2022/07/01 08:04:00;;;;;;;16.20;14.57;;;20.00;99.90;;;;;;5052596;28;20102;-47
2022/07/01 08:06:26;;;;;;;17.05;15.23;;;20.10;99.90;;;;;;5051415;28;20493;-47
2022/07/01 08:08:52;;;;;;;19.13;17.00;;;20.10;99.90;;;;;;5051701;28;20057;-48
2022/07/01 08:11:17;;;;;;;17.73;15.98;;;20.30;99.90;;;;;;5052502;28;20044;-47
2022/07/01 08:13:43;;;;;;;19.77;15.38;;;20.40;99.90;;;;;;5052605;28;20044;-47
2022/07/01 08:16:09;;;;;;;18.10;15.20;;;20.40;99.90;;;;;;5052293;28;20045;-49
2022/07/01 08:18:35;;;;;;;15.95;14.50;;;20.40;99.90;;;;;;5048742;28;20036;-49
2022/07/01 08:21:01;;;;;;;17.73;14.63;;;20.40;99.90;;;;;;5047766;28;20406;-49
2022/07/01 08:23:27;;;;;;;16.85;15.23;;;20.30;99.90;;;;;;5047488;28;20045;-48
2022/07/01 08:25:53;;;;;;;18.05;15.00;;;20.40;99.90;;;;;;5047190;28;20541;-47
2022/07/01 08:28:19;;;;;;;16.85;15.05;;;20.90;99.90;;;;;;5047513;28;20133;-47
2022/07/01 08:30:45;;;;;;;15.45;14.05;;;21.40;99.90;;;;;;5048077;28;20045;-47
2022/07/01 08:33:11;;;;;;;13.43;12.18;;;21.80;99.90;;;;;;5047601;28;20044;-47
2022/07/01 08:35:37;;;;;;;14.05;11.75;;;21.90;99.90;;;;;;5048342;28;20048;-49
2022/07/01 08:38:03;;;;;;;14.30;12.90;;;21.90;99.90;;;;;;5047976;28;20029;-47
2022/07/01 08:40:30;;;;;;;12.75;11.45;;;21.80;99.90;;;;;;5047779;28;20138;-48
2022/07/01 08:43:01;;;;;;;15.27;11.70;;;21.90;99.90;;;;;;5047803;28;20073;-47
2022/07/01 08:45:28;;;;;;;12.88;11.68;;;22.20;99.90;;;;;;5047731;28;20049;-47
2022/07/01 08:47:57;;;;;;;11.60;10.35;;;22.70;99.90;;;;;;5045949;28;20049;-49
2022/07/01 08:50:27;;;;;;;12.55;10.32;;;23.70;99.90;;;;;;5047227;28;20048;-47
2022/07/01 08:52:53;;;;;;;11.18;9.18;;;24.30;98.70;;;;;;5047404;28;20069;-47
2022/07/01 08:55:23;;;;;;;10.48;9.48;;;24.70;96.80;;;;;;5046226;28;20083;-47
2022/07/01 08:57:49;;;;;;;10.55;9.45;;;24.80;95.00;;;;;;5047793;28;20119;-47
2022/07/01 09:00:15;;;;;;;12.35;8.30;;;25.20;99.10;;;;;;5045733;28;20559;-51
2022/07/01 09:02:52;;;;;;;7.88;7.07;;;25.60;93.80;;;;;;5047497;28;20072;-47
2022/07/01 09:05:22;;;;;;;11.23;6.97;;;;;;;;;;5047198;28;20487;-48
2022/07/01 09:07:55;;;;;;;9.90;7.40;;;26.10;91.70;;;;;;5047272;28;20055;-48
2022/07/01 09:10:21;;;;;;;9.00;7.00;;;26.10;90.70;;;;;;5046947;28;20033;-48
2022/07/01 09:12:47;;;;;;;10.27;6.38;;;25.80;89.60;;;;;;5047258;28;20509;-48
2022/07/01 09:15:27;;;;;;;5.97;4.95;;;25.60;87.50;;;;;;5047222;28;20054;-47
2022/07/01 09:17:55;;;;;;;8.32;6.57;;;25.10;86.40;;;;;;5047407;28;20041;-48
2022/07/01 09:20:35;;;;;;;6.20;5.03;;;24.60;88.70;;;;;;5048711;28;20037;-48
2022/07/01 09:23:04;;;;;;;6.10;4.68;;;24.20;88.60;;;;;;5050634;28;20128;-47
2022/07/01 09:25:45;;;;;;;7.45;4.72;;;24.20;90.20;;;;;;5051230;28;20103;-48
2022/07/01 09:28:16;;;;;;;6.90;5.07;;;24.20;89.90;;;;;;5050337;28;20891;-48
2022/07/01 09:30:47;;;;;;;6.32;4.47;;;24.40;89.30;;;;;;5050913;28;20283;-48
2022/07/01 09:33:18;;;;;;;7.28;4.40;;;24.40;89.50;;;;;;5050451;28;20114;-48
2022/07/01 09:35:45;;;;;;;6.80;4.25;;;24.20;89.70;;;;;;5050611;28;20041;-48
2022/07/01 09:38:15;;;;;;;8.13;4.57;;;24.00;90.90;;;;;;5050140;28;20132;-47
2022/07/01 09:41:00;;;;;;;4.55;3.95;;;23.80;88.80;;;;;;5050505;28;20051;-47
2022/07/01 09:43:28;;;;;;;9.80;4.88;;;23.90;90.00;;;;;;5048842;28;20588;-48
2022/07/01 09:46:02;;;;;;;6.80;5.45;;;23.80;90.70;;;;;;5050077;28;20099;-48
2022/07/01 09:48:51;;;;;;;5.20;4.70;;;23.50;89.20;;;;;;5050419;28;20052;-47
2022/07/01 09:51:16;;;;;;;9.65;4.00;;;23.30;89.20;;;;;;5046234;28;20053;-48
2022/07/01 09:53:43;;;;;;;5.43;4.20;;;23.00;90.30;;;;;;5050407;28;20064;-48
2022/07/01 09:56:08;;;;;;;7.07;3.97;;;22.80;90.30;;;;;;5050185;28;20392;-47
2022/07/01 09:58:35;;;;;;;6.57;4.57;;;22.70;90.40;;;;;;5050079;28;20045;-49
2022/07/01 10:01:03;;;;;;;7.68;4.88;;;22.60;90.50;;;;;;5049908;28;20454;-47
2022/07/01 10:03:32;;;;;;;6.25;3.92;;;22.80;90.80;;;;;;5049972;28;20070;-51
2022/07/01 10:06:23;;;;;;;8.32;4.80;;;23.60;90.70;;;;;;5049713;28;20059;-49
2022/07/01 10:09:11;;;;;;;8.00;4.60;;;24.10;88.30;;;;;;5049862;28;20065;-48
2022/07/01 10:11:42;;;;;;;9.40;4.80;;;24.20;88.50;;;;;;5049326;28;20044;-50
2022/07/01 10:14:11;;;;;;;7.63;3.55;;;24.40;87.10;;;;;;5049131;28;20491;-47
2022/07/01 10:16:40;;;;;;;5.95;3.53;;;24.30;86.70;;;;;;5048282;28;20079;-48
2022/07/01 10:19:25;;;;;;;7.88;3.72;;;24.00;86.40;;;;;;5049212;28;20080;-48
2022/07/01 10:21:56;;;;;;;6.38;4.40;;;24.00;86.80;;;;;;5049984;28;20237;-49
2022/07/01 10:24:23;;;;;;;6.90;4.10;;;23.90;86.00;;;;;;5049088;28;20075;-48
2022/07/01 10:26:48;;;;;;;6.97;2.97;;;23.90;86.30;;;;;;5049530;28;20451;-48
2022/07/01 10:29:34;;;;;;;4.88;2.85;;;24.30;87.30;;;;;;5048908;28;20644;-48
2022/07/01 10:32:24;;;;;;;8.73;4.00;;;25.70;87.70;;;;;;5048727;28;20055;-49
2022/07/01 10:35:02;;;;;;;4.63;3.13;;;27.10;80.60;;;;;;5048978;28;20388;-49
2022/07/01 10:37:27;;;;;;;5.85;4.07;;;27.70;78.50;;;;;;5049140;28;20491;-48
2022/07/01 10:39:58;;;;;;;4.22;2.33;;;28.10;75.70;;;;;;5048700;28;20083;-49
2022/07/01 10:42:31;;;;;;;6.70;2.85;;;28.20;74.50;;;;;;5048879;28;20049;-49
2022/07/01 10:45:01;;;;;;;4.07;2.35;;;28.60;74.10;;;;;;5048696;28;20580;-49
2022/07/01 10:47:27;;;;;;;4.45;2.65;;;29.50;71.10;;;;;;5047557;28;20071;-50
2022/07/01 10:49:58;;;;;;;5.07;3.08;;;30.10;70.30;;;;;;5048927;28;20045;-48
2022/07/01 10:52:25;;;;;;;5.18;2.83;;;31.00;67.20;;;;;;5048902;28;20037;-50
2022/07/01 10:54:56;;;;;;;6.28;3.28;;;31.40;64.40;;;;;;5047352;28;20052;-50
2022/07/01 10:57:27;;;;;;;6.57;2.58;;;31.00;64.40;;;;;;5048614;28;20040;-49
2022/07/01 10:59:59;;;;;;;5.03;2.67;;;29.80;63.00;;;;;;5048981;28;20083;-51
2022/07/01 11:02:35;;;;;;;6.25;2.70;;;28.80;65.40;;;;;;5048612;28;20037;-49
2022/07/01 11:05:03;;;;;;;4.53;3.10;;;28.00;67.70;;;;;;5048809;28;20037;-49
2022/07/01 11:07:32;;;;;;;5.35;2.25;;;27.30;69.20;;;;;;5048593;28;20041;-49
2022/07/01 11:10:01;;;;;;;5.53;2.25;;;27.20;70.80;;;;;;5047746;28;20123;-49
2022/07/01 11:12:28;;;;;;;7.93;2.03;;;27.20;72.80;;;;;;5048283;28;20558;-48
2022/07/01 11:14:57;;;;;;;7.28;2.35;;;26.90;70.50;;;;;;5047216;28;20075;-49
2022/07/01 11:17:23;;;;;;;5.63;1.88;;;26.80;70.60;;;;;;5048768;28;20051;-48
2022/07/01 11:19:50;;;;;;;4.05;1.90;;;26.70;70.90;;;;;;5048950;28;20486;-49
2022/07/01 11:22:24;;;;;;;4.18;1.98;;;26.80;70.00;;;;;;5048028;28;20471;-52
2022/07/01 11:24:54;;;;;;;4.70;1.85;;;26.90;70.90;;;;;;5048621;28;20049;-52
2022/07/01 11:27:24;;;;;;;5.10;1.80;;;26.70;70.20;;;;;;5048116;28;20398;-49
2022/07/01 11:29:57;;;;;;;4.82;1.98;;;26.30;70.30;;;;;;5048424;28;20053;-49
2022/07/01 11:32:34;;;;;;;3.38;1.88;;;26.00;72.30;;;;;;5048163;28;20406;-48
2022/07/01 11:35:03;;;;;;;5.30;1.88;;;25.80;73.00;;;;;;5048150;28;20045;-49
2022/07/01 11:40:17;;;;;;;3.80;1.60;;;25.20;72.40;;;;;;5047844;28;20100;-48
2022/07/01 11:42:44;;;;;;;3.90;1.65;;;25.10;73.30;;;;;;5047565;28;20045;-49
2022/07/01 11:45:22;;;;;;;4.57;1.83;;;24.90;74.80;;;;;;5047699;28;20554;-48
2022/07/01 11:47:48;;;;;;;3.72;1.30;;;24.80;77.00;;;;;;5048378;28;20048;-48
2022/07/01 11:50:15;;;;;;;3.42;1.20;;;24.60;77.00;;;;;;5047723;28;20040;-50
2022/07/01 11:52:41;;;;;;;2.65;1.00;;;24.50;77.80;;;;;;5048012;28;20052;-48
2022/07/01 11:55:09;;;;;;;4.18;0.93;;;24.50;77.70;;;;;;5048190;28;20055;-50
2022/07/01 11:57:34;;;;;;;2.85;1.05;;;24.50;77.20;;;;;;5048020;28;20106;-48
2022/07/01 12:00:09;;;;;;;2.17;0.80;;;24.60;76.30;;;;;;5047974;28;20478;-49
2022/07/01 12:02:35;;;;;;;2.22;0.57;;;24.70;76.10;;;;;;5048411;28;20043;-48
2022/07/01 12:05:02;;;;;;;2.53;0.82;;;24.60;77.00;;;;;;5048127;28;20390;-49
2022/07/01 12:07:28;;;;;;;3.40;0.82;;;24.50;76.30;;;;;;5047817;28;20170;-48
2022/07/01 12:09:54;;;;;;;2.17;0.35;;;24.40;75.70;;;;;;5047175;28;20056;-48
2022/07/01 12:12:25;;;;;;;5.68;1.10;;;24.40;76.90;;;;;;5048089;28;20474;-49
2022/07/01 12:14:59;;;;;;;3.35;0.52;;;24.50;77.40;;;;;;5047612;28;20044;-51
2022/07/01 12:17:27;;;;;;;4.13;1.15;;;24.70;77.20;;;;;;5047530;28;20099;-48
2022/07/01 12:19:54;;;;;;;3.40;0.55;;;24.60;76.70;;;;;;5046082;28;20047;-49
2022/07/01 12:22:24;;;;;;;2.80;0.57;;;24.40;76.40;;;;;;5047420;28;20045;-50
2022/07/01 12:25:07;;;;;;;6.35;0.47;;;24.00;77.10;;;;;;5047762;28;20363;-48
2022/07/01 12:27:35;;;;;;;2.78;0.40;;;23.60;77.70;;;;;;5047196;28;20683;-48
2022/07/01 12:30:01;;;;;;;3.50;0.30;;;23.20;79.40;;;;;;5047457;28;20097;-48
2022/07/01 12:32:28;;;;;;;4.45;0.80;;;23.10;80.30;;;;;;5047045;28;20041;-48
2022/07/01 12:34:55;;;;;;;3.53;0.85;;;23.00;80.70;;;;;;5047579;28;20045;-48
2022/07/01 12:37:36;;;;;;;3.40;0.20;;;22.90;81.60;;;;;;5047350;28;20040;-49
2022/07/01 12:40:07;;;;;;;5.63;0.70;;;22.80;82.30;;;;;;5047270;28;20041;-48
2022/07/01 12:42:34;;;;;;;3.45;0.90;;;22.90;82.40;;;;;;5047346;28;20041;-48
2022/07/01 12:45:02;;;;;;;4.32;0.40;;;23.10;82.80;;;;;;5048163;28;20045;-51
2022/07/01 12:47:31;;;;;;;3.42;0.30;;;23.10;81.20;;;;;;5046958;28;20116;-50
2022/07/01 12:50:16;;;;;;;1.55;0.43;;;23.10;81.10;;;;;;5046262;28;20084;-54
2022/07/01 12:53:05;;;;;;;3.65;0.50;;;22.80;80.00;;;;;;5046833;28;20399;-54
2022/07/01 12:55:33;;;;;;;6.32;0.63;;;22.50;78.90;;;;;;5048041;28;20037;-54
2022/07/01 12:57:59;;;;;;;3.58;0.30;;;22.40;80.30;;;;;;5050994;28;20402;-54
2022/07/01 13:00:27;;;;;;;4.35;0.38;;;22.40;81.50;;;;;;5050539;28;20036;-55
2022/07/01 13:03:03;;;;;;;2.45;0.25;;;22.60;82.30;;;;;;5050557;28;20073;-55